sensor_id;sensor_type;location;lat;lon;timestamp;temperature;humidity
8595;DHT22;4335;48.860;9.198;2023-07-24T00:00:42;20.30;99.90
8595;DHT22;4335;48.860;9.198;2023-07-24T00:03:09;20.00;99.90
8595;DHT22;4335;48.860;9.198;2023-07-24T00:05:40;19.70;99.90
8595;DHT22;4335;48.860;9.198;2023-07-24T00:08:13;19.50;99.90
8595;DHT22;4335;48.860;9.198;2023-07-24T00:10:40;19.20;99.90
8595;DHT22;4335;48.860;9.198;2023-07-24T00:13:15;19.10;99.90
8595;DHT22;4335;48.860;9.198;2023-07-24T00:15:45;19.10;99.90
8595;DHT22;4335;48.860;9.198;2023-07-24T00:18:13;19.10;99.90
8595;DHT22;4335;48.860;9.198;2023-07-24T00:20:40;19.00;99.90
8595;DHT22;4335;48.860;9.198;2023-07-24T00:23:14;18.90;99.90
8595;DHT22;4335;48.860;9.198;2023-07-24T00:25:44;18.80;99.90
8595;DHT22;4335;48.860;9.198;2023-07-24T00:28:13;18.80;99.90
8595;DHT22;4335;48.860;9.198;2023-07-24T00:30:40;18.80;99.90
8595;DHT22;4335;48.860;9.198;2023-07-24T00:33:09;18.80;99.90
8595;DHT22;4335;48.860;9.198;2023-07-24T00:35:42;18.80;99.90
8595;DHT22;4335;48.860;9.198;2023-07-24T00:38:13;18.80;99.90
8595;DHT22;4335;48.860;9.198;2023-07-24T00:40:40;18.70;99.90
8595;DHT22;4335;48.860;9.198;2023-07-24T00:43:07;18.80;99.90
8595;DHT22;4335;48.860;9.198;2023-07-24T00:45:39;18.80;99.90
8595;DHT22;4335;48.860;9.198;2023-07-24T00:48:13;18.80;99.90
8595;DHT22;4335;48.860;9.198;2023-07-24T00:50:42;18.80;99.90
8595;DHT22;4335;48.860;9.198;2023-07-24T00:53:14;18.80;99.90
8595;DHT22;4335;48.860;9.198;2023-07-24T00:55:42;18.70;99.90
8595;DHT22;4335;48.860;9.198;2023-07-24T00:58:13;18.70;99.90
8595;DHT22;4335;48.860;9.198;2023-07-24T01:00:44;18.70;99.90
8595;DHT22;4335;48.860;9.198;2023-07-24T01:03:11;18.70;99.90
8595;DHT22;4335;48.860;9.198;2023-07-24T01:05:42;18.70;99.90
8595;DHT22;4335;48.860;9.198;2023-07-24T01:08:09;18.70;99.90
8595;DHT22;4335;48.860;9.198;2023-07-24T01:10:40;18.70;99.90
8595;DHT22;4335;48.860;9.198;2023-07-24T01:13:15;18.70;99.90
8595;DHT22;4335;48.860;9.198;2023-07-24T01:15:59;18.70;99.90
8595;DHT22;4335;48.860;9.198;2023-07-24T01:18:29;18.70;99.90
8595;DHT22;4335;48.860;9.198;2023-07-24T01:20:57;18.60;99.90
8595;DHT22;4335;48.860;9.198;2023-07-24T01:23:38;18.60;99.90
8595;DHT22;4335;48.860;9.198;2023-07-24T01:26:15;18.60;99.90
8595;DHT22;4335;48.860;9.198;2023-07-24T01:28:42;18.50;99.90
8595;DHT22;4335;48.860;9.198;2023-07-24T01:31:10;18.50;99.90
8595;DHT22;4335;48.860;9.198;2023-07-24T01:33:37;18.50;99.90
8595;DHT22;4335;48.860;9.198;2023-07-24T01:36:07;18.50;99.90
8595;DHT22;4335;48.860;9.198;2023-07-24T01:38:38;18.50;99.90
8595;DHT22;4335;48.860;9.198;2023-07-24T01:41:08;18.50;99.90
8595;DHT22;4335;48.860;9.198;2023-07-24T01:43:40;18.50;99.90
8595;DHT22;4335;48.860;9.198;2023-07-24T01:46:10;18.50;99.90
8595;DHT22;4335;48.860;9.198;2023-07-24T01:48:38;18.50;99.90
8595;DHT22;4335;48.860;9.198;2023-07-24T01:51:05;18.50;99.90
8595;DHT22;4335;48.860;9.198;2023-07-24T01:53:32;18.50;99.90
8595;DHT22;4335;48.860;9.198;2023-07-24T01:56:02;18.50;99.90
8595;DHT22;4335;48.860;9.198;2023-07-24T01:58:30;18.50;99.90
8595;DHT22;4335;48.860;9.198;2023-07-24T02:01:05;18.50;99.90
8595;DHT22;4335;48.860;9.198;2023-07-24T02:03:32;18.50;99.90
8595;DHT22;4335;48.860;9.198;2023-07-24T02:06:00;18.50;99.90
8595;DHT22;4335;48.860;9.198;2023-07-24T02:08:30;18.50;99.90
8595;DHT22;4335;48.860;9.198;2023-07-24T02:11:06;18.50;99.90
8595;DHT22;4335;48.860;9.198;2023-07-24T02:13:37;18.50;99.90
8595;DHT22;4335;48.860;9.198;2023-07-24T02:16:08;18.60;99.90
8595;DHT22;4335;48.860;9.198;2023-07-24T02:18:42;18.60;99.90
8595;DHT22;4335;48.860;9.198;2023-07-24T02:21:10;18.60;99.90
8595;DHT22;4335;48.860;9.198;2023-07-24T02:23:37;18.70;99.90
8595;DHT22;4335;48.860;9.198;2023-07-24T02:26:04;18.70;99.90
8595;DHT22;4335;48.860;9.198;2023-07-24T02:28:32;18.70;99.90
8595;DHT22;4335;48.860;9.198;2023-07-24T02:31:02;18.70;99.90
8595;DHT22;4335;48.860;9.198;2023-07-24T02:33:34;18.70;99.90
8595;DHT22;4335;48.860;9.198;2023-07-24T02:36:01;18.70;99.90
8595;DHT22;4335;48.860;9.198;2023-07-24T02:38:29;18.70;99.90
8595;DHT22;4335;48.860;9.198;2023-07-24T02:40:58;18.80;99.90
8595;DHT22;4335;48.860;9.198;2023-07-24T02:43:29;18.80;99.90
8595;DHT22;4335;48.860;9.198;2023-07-24T02:46:00;18.80;99.90
8595;DHT22;4335;48.860;9.198;2023-07-24T02:48:30;18.80;99.90
8595;DHT22;4335;48.860;9.198;2023-07-24T02:50:59;18.80;99.90
8595;DHT22;4335;48.860;9.198;2023-07-24T02:53:27;18.80;99.90
8595;DHT22;4335;48.860;9.198;2023-07-24T02:55:54;18.80;99.90
8595;DHT22;4335;48.860;9.198;2023-07-24T02:58:25;18.80;99.90
8595;DHT22;4335;48.860;9.198;2023-07-24T03:01:05;18.80;99.90
8595;DHT22;4335;48.860;9.198;2023-07-24T03:03:42;18.80;99.90
8595;DHT22;4335;48.860;9.198;2023-07-24T03:06:13;18.80;99.90
8595;DHT22;4335;48.860;9.198;2023-07-24T03:08:41;18.70;99.90
8595;DHT22;4335;48.860;9.198;2023-07-24T03:11:14;18.80;99.90
8595;DHT22;4335;48.860;9.198;2023-07-24T03:13:41;18.80;99.90
8595;DHT22;4335;48.860;9.198;2023-07-24T03:16:09;18.70;99.90
8595;DHT22;4335;48.860;9.198;2023-07-24T03:18:39;18.70;99.90
8595;DHT22;4335;48.860;9.198;2023-07-24T03:21:11;18.70;99.90
8595;DHT22;4335;48.860;9.198;2023-07-24T03:23:40;18.60;99.90
8595;DHT22;4335;48.860;9.198;2023-07-24T03:26:10;18.60;99.90
8595;DHT22;4335;48.860;9.198;2023-07-24T03:28:40;18.60;99.90
8595;DHT22;4335;48.860;9.198;2023-07-24T03:31:16;18.50;99.90
8595;DHT22;4335;48.860;9.198;2023-07-24T03:33:45;18.50;99.90
8595;DHT22;4335;48.860;9.198;2023-07-24T03:36:14;18.50;99.90
8595;DHT22;4335;48.860;9.198;2023-07-24T03:38:42;18.50;99.90
8595;DHT22;4335;48.860;9.198;2023-07-24T03:41:12;18.50;99.90
8595;DHT22;4335;48.860;9.198;2023-07-24T03:43:39;18.50;99.90
8595;DHT22;4335;48.860;9.198;2023-07-24T03:46:13;18.50;99.90
8595;DHT22;4335;48.860;9.198;2023-07-24T03:48:40;18.50;99.90
8595;DHT22;4335;48.860;9.198;2023-07-24T03:51:08;18.60;99.90
8595;DHT22;4335;48.860;9.198;2023-07-24T03:53:37;18.60;99.90
8595;DHT22;4335;48.860;9.198;2023-07-24T03:56:10;18.60;99.90
8595;DHT22;4335;48.860;9.198;2023-07-24T03:58:38;18.60;99.90
8595;DHT22;4335;48.860;9.198;2023-07-24T04:01:06;18.60;99.90
8595;DHT22;4335;48.860;9.198;2023-07-24T04:03:36;18.70;99.90
8595;DHT22;4335;48.860;9.198;2023-07-24T04:06:03;18.80;99.90
8595;DHT22;4335;48.860;9.198;2023-07-24T04:08:34;18.80;99.90
8595;DHT22;4335;48.860;9.198;2023-07-24T04:11:16;18.90;99.90
8595;DHT22;4335;48.860;9.198;2023-07-24T04:13:46;18.90;99.90
8595;DHT22;4335;48.860;9.198;2023-07-24T04:16:16;19.00;99.90
8595;DHT22;4335;48.860;9.198;2023-07-24T04:18:44;19.10;99.90
8595;DHT22;4335;48.860;9.198;2023-07-24T04:21:14;19.20;99.90
8595;DHT22;4335;48.860;9.198;2023-07-24T04:23:42;19.30;99.90
8595;DHT22;4335;48.860;9.198;2023-07-24T04:26:10;19.40;99.90
8595;DHT22;4335;48.860;9.198;2023-07-24T04:28:38;19.50;99.90
8595;DHT22;4335;48.860;9.198;2023-07-24T04:31:08;19.50;99.90
8595;DHT22;4335;48.860;9.198;2023-07-24T04:33:36;19.60;99.90
8595;DHT22;4335;48.860;9.198;2023-07-24T04:36:03;19.60;99.90
8595;DHT22;4335;48.860;9.198;2023-07-24T04:38:31;19.60;99.90
8595;DHT22;4335;48.860;9.198;2023-07-24T04:41:10;19.60;99.90
8595;DHT22;4335;48.860;9.198;2023-07-24T04:43:38;19.70;99.90
8595;DHT22;4335;48.860;9.198;2023-07-24T04:46:08;19.80;99.90
8595;DHT22;4335;48.860;9.198;2023-07-24T04:48:35;19.90;99.90
8595;DHT22;4335;48.860;9.198;2023-07-24T04:51:03;20.00;99.90
8595;DHT22;4335;48.860;9.198;2023-07-24T04:53:30;20.10;99.90
8595;DHT22;4335;48.860;9.198;2023-07-24T04:56:00;20.20;99.90
8595;DHT22;4335;48.860;9.198;2023-07-24T04:58:32;20.20;99.90
8595;DHT22;4335;48.860;9.198;2023-07-24T05:01:02;20.20;99.90
8595;DHT22;4335;48.860;9.198;2023-07-24T05:03:30;20.20;99.90
8595;DHT22;4335;48.860;9.198;2023-07-24T05:06:04;20.20;99.90
8595;DHT22;4335;48.860;9.198;2023-07-24T05:08:34;20.20;99.90
8595;DHT22;4335;48.860;9.198;2023-07-24T05:11:01;20.20;99.90
8595;DHT22;4335;48.860;9.198;2023-07-24T05:13:29;20.20;99.90
8595;DHT22;4335;48.860;9.198;2023-07-24T05:16:04;20.20;99.90
8595;DHT22;4335;48.860;9.198;2023-07-24T05:18:31;20.20;99.90
8595;DHT22;4335;48.860;9.198;2023-07-24T05:21:02;20.30;99.90
8595;DHT22;4335;48.860;9.198;2023-07-24T05:23:32;20.40;99.90
8595;DHT22;4335;48.860;9.198;2023-07-24T05:26:01;20.40;99.90
8595;DHT22;4335;48.860;9.198;2023-07-24T05:28:29;20.50;99.90
8595;DHT22;4335;48.860;9.198;2023-07-24T05:31:00;20.50;99.90
8595;DHT22;4335;48.860;9.198;2023-07-24T05:33:30;20.50;99.90
8595;DHT22;4335;48.860;9.198;2023-07-24T05:35:58;20.40;99.90
8595;DHT22;4335;48.860;9.198;2023-07-24T05:38:29;20.40;99.90
8595;DHT22;4335;48.860;9.198;2023-07-24T05:41:02;20.40;99.90
8595;DHT22;4335;48.860;9.198;2023-07-24T05:43:35;20.40;99.90
8595;DHT22;4335;48.860;9.198;2023-07-24T05:46:03;20.40;99.90
8595;DHT22;4335;48.860;9.198;2023-07-24T05:48:31;20.40;99.90
8595;DHT22;4335;48.860;9.198;2023-07-24T05:51:05;20.40;99.90
8595;DHT22;4335;48.860;9.198;2023-07-24T05:53:32;20.40;99.90
8595;DHT22;4335;48.860;9.198;2023-07-24T05:56:00;20.40;99.90
8595;DHT22;4335;48.860;9.198;2023-07-24T05:58:28;20.40;99.90
8595;DHT22;4335;48.860;9.198;2023-07-24T06:00:56;20.40;99.90
8595;DHT22;4335;48.860;9.198;2023-07-24T06:03:23;20.40;99.90
8595;DHT22;4335;48.860;9.198;2023-07-24T06:05:53;20.40;99.90
8595;DHT22;4335;48.860;9.198;2023-07-24T06:08:26;20.40;99.90
8595;DHT22;4335;48.860;9.198;2023-07-24T06:11:12;20.40;99.90
8595;DHT22;4335;48.860;9.198;2023-07-24T06:13:40;20.50;99.90
8595;DHT22;4335;48.860;9.198;2023-07-24T06:16:07;20.50;99.90
8595;DHT22;4335;48.860;9.198;2023-07-24T06:18:44;20.50;99.90
8595;DHT22;4335;48.860;9.198;2023-07-24T06:21:12;20.60;99.90
8595;DHT22;4335;48.860;9.198;2023-07-24T06:23:40;20.70;99.90
8595;DHT22;4335;48.860;9.198;2023-07-24T06:26:07;20.70;99.90
8595;DHT22;4335;48.860;9.198;2023-07-24T06:28:35;20.70;99.90
8595;DHT22;4335;48.860;9.198;2023-07-24T06:31:02;20.70;99.90
8595;DHT22;4335;48.860;9.198;2023-07-24T06:33:29;20.70;99.90
8595;DHT22;4335;48.860;9.198;2023-07-24T06:35:57;20.70;99.90
8595;DHT22;4335;48.860;9.198;2023-07-24T06:38:28;20.80;99.90
8595;DHT22;4335;48.860;9.198;2023-07-24T06:40:56;20.80;99.90
8595;DHT22;4335;48.860;9.198;2023-07-24T06:43:23;20.80;99.90
8595;DHT22;4335;48.860;9.198;2023-07-24T06:45:51;20.90;99.90
8595;DHT22;4335;48.860;9.198;2023-07-24T06:48:21;21.00;99.90
8595;DHT22;4335;48.860;9.198;2023-07-24T06:50:48;21.00;99.90
8595;DHT22;4335;48.860;9.198;2023-07-24T06:53:15;21.10;99.90
8595;DHT22;4335;48.860;9.198;2023-07-24T06:55:44;21.10;99.90
8595;DHT22;4335;48.860;9.198;2023-07-24T06:58:12;21.20;99.90
8595;DHT22;4335;48.860;9.198;2023-07-24T07:00:39;21.30;99.90
8595;DHT22;4335;48.860;9.198;2023-07-24T07:03:07;21.30;99.90
8595;DHT22;4335;48.860;9.198;2023-07-24T07:05:34;21.30;99.90
8595;DHT22;4335;48.860;9.198;2023-07-24T07:08:02;21.30;99.90
8595;DHT22;4335;48.860;9.198;2023-07-24T07:10:30;21.40;99.90
8595;DHT22;4335;48.860;9.198;2023-07-24T07:12:59;21.40;99.90
8595;DHT22;4335;48.860;9.198;2023-07-24T07:15:27;21.50;99.90
8595;DHT22;4335;48.860;9.198;2023-07-24T07:17:57;21.50;99.90
8595;DHT22;4335;48.860;9.198;2023-07-24T07:20:25;21.60;99.90
8595;DHT22;4335;48.860;9.198;2023-07-24T07:22:52;21.60;99.90
8595;DHT22;4335;48.860;9.198;2023-07-24T07:25:19;21.60;99.90
8595;DHT22;4335;48.860;9.198;2023-07-24T07:27:46;21.60;99.90
8595;DHT22;4335;48.860;9.198;2023-07-24T07:30:15;21.50;99.90
8595;DHT22;4335;48.860;9.198;2023-07-24T07:32:46;21.50;99.90
8595;DHT22;4335;48.860;9.198;2023-07-24T07:35:14;21.40;99.90
8595;DHT22;4335;48.860;9.198;2023-07-24T07:37:41;21.40;99.90
8595;DHT22;4335;48.860;9.198;2023-07-24T07:40:10;21.50;99.90
8595;DHT22;4335;48.860;9.198;2023-07-24T07:42:37;21.40;99.90
8595;DHT22;4335;48.860;9.198;2023-07-24T07:45:06;21.50;99.90
8595;DHT22;4335;48.860;9.198;2023-07-24T07:47:37;21.50;99.90
8595;DHT22;4335;48.860;9.198;2023-07-24T07:50:05;21.50;99.90
8595;DHT22;4335;48.860;9.198;2023-07-24T07:52:33;21.50;99.90
8595;DHT22;4335;48.860;9.198;2023-07-24T07:55:04;21.50;99.90
8595;DHT22;4335;48.860;9.198;2023-07-24T07:57:38;21.50;99.90
8595;DHT22;4335;48.860;9.198;2023-07-24T08:00:09;21.60;99.90
8595;DHT22;4335;48.860;9.198;2023-07-24T08:02:41;21.60;99.90
8595;DHT22;4335;48.860;9.198;2023-07-24T08:05:09;21.60;99.90
8595;DHT22;4335;48.860;9.198;2023-07-24T08:07:39;21.60;99.90
8595;DHT22;4335;48.860;9.198;2023-07-24T08:10:07;21.60;99.90
8595;DHT22;4335;48.860;9.198;2023-07-24T08:12:38;21.60;99.90
8595;DHT22;4335;48.860;9.198;2023-07-24T08:15:06;21.60;99.90
8595;DHT22;4335;48.860;9.198;2023-07-24T08:17:34;21.60;99.90
8595;DHT22;4335;48.860;9.198;2023-07-24T08:20:03;21.60;99.90
8595;DHT22;4335;48.860;9.198;2023-07-24T08:22:31;21.60;99.90
8595;DHT22;4335;48.860;9.198;2023-07-24T08:24:58;21.50;99.90
8595;DHT22;4335;48.860;9.198;2023-07-24T08:27:26;21.50;99.90
8595;DHT22;4335;48.860;9.198;2023-07-24T08:29:53;21.50;99.90
8595;DHT22;4335;48.860;9.198;2023-07-24T08:32:20;21.40;99.90
8595;DHT22;4335;48.860;9.198;2023-07-24T08:34:57;21.40;99.90
8595;DHT22;4335;48.860;9.198;2023-07-24T08:37:29;21.30;99.90
8595;DHT22;4335;48.860;9.198;2023-07-24T08:39:56;21.20;99.90
8595;DHT22;4335;48.860;9.198;2023-07-24T08:42:23;21.10;99.90
8595;DHT22;4335;48.860;9.198;2023-07-24T08:44:52;21.10;99.90
8595;DHT22;4335;48.860;9.198;2023-07-24T08:47:20;21.00;99.90
8595;DHT22;4335;48.860;9.198;2023-07-24T08:49:52;21.10;99.90
8595;DHT22;4335;48.860;9.198;2023-07-24T08:52:21;21.10;99.90
8595;DHT22;4335;48.860;9.198;2023-07-24T08:54:50;21.20;99.90
8595;DHT22;4335;48.860;9.198;2023-07-24T08:57:17;21.20;99.90
8595;DHT22;4335;48.860;9.198;2023-07-24T08:59:45;21.30;99.90
8595;DHT22;4335;48.860;9.198;2023-07-24T09:02:18;21.30;99.90
8595;DHT22;4335;48.860;9.198;2023-07-24T09:04:46;21.50;99.90
8595;DHT22;4335;48.860;9.198;2023-07-24T09:07:15;21.60;99.90
8595;DHT22;4335;48.860;9.198;2023-07-24T09:09:53;21.70;99.90
8595;DHT22;4335;48.860;9.198;2023-07-24T09:12:26;21.80;99.90
8595;DHT22;4335;48.860;9.198;2023-07-24T09:15:04;21.80;99.90
8595;DHT22;4335;48.860;9.198;2023-07-24T09:17:32;22.00;99.90
8595;DHT22;4335;48.860;9.198;2023-07-24T09:20:03;22.30;99.90
8595;DHT22;4335;48.860;9.198;2023-07-24T09:22:33;22.50;99.90
8595;DHT22;4335;48.860;9.198;2023-07-24T09:25:02;22.70;99.90
8595;DHT22;4335;48.860;9.198;2023-07-24T09:27:31;23.00;99.90
8595;DHT22;4335;48.860;9.198;2023-07-24T09:29:58;23.30;99.90
8595;DHT22;4335;48.860;9.198;2023-07-24T09:32:26;23.40;99.90
8595;DHT22;4335;48.860;9.198;2023-07-24T09:34:54;23.90;99.90
8595;DHT22;4335;48.860;9.198;2023-07-24T09:37:29;24.40;99.90
8595;DHT22;4335;48.860;9.198;2023-07-24T09:39:56;24.70;99.90
8595;DHT22;4335;48.860;9.198;2023-07-24T09:42:34;24.70;99.90
8595;DHT22;4335;48.860;9.198;2023-07-24T09:45:02;24.70;99.90
8595;DHT22;4335;48.860;9.198;2023-07-24T09:47:30;24.50;99.90
8595;DHT22;4335;48.860;9.198;2023-07-24T09:49:59;24.30;99.90
8595;DHT22;4335;48.860;9.198;2023-07-24T09:52:29;24.30;99.90
8595;DHT22;4335;48.860;9.198;2023-07-24T09:55:01;24.10;99.90
8595;DHT22;4335;48.860;9.198;2023-07-24T09:57:32;23.90;99.90
8595;DHT22;4335;48.860;9.198;2023-07-24T10:00:01;23.70;99.90
8595;DHT22;4335;48.860;9.198;2023-07-24T10:02:29;23.60;99.90
8595;DHT22;4335;48.860;9.198;2023-07-24T10:04:56;23.40;99.90
8595;DHT22;4335;48.860;9.198;2023-07-24T10:07:24;23.30;99.90
8595;DHT22;4335;48.860;9.198;2023-07-24T10:09:52;23.10;99.90
8595;DHT22;4335;48.860;9.198;2023-07-24T10:12:20;23.00;99.90
8595;DHT22;4335;48.860;9.198;2023-07-24T10:14:50;22.90;99.90
8595;DHT22;4335;48.860;9.198;2023-07-24T10:17:36;22.80;99.90
8595;DHT22;4335;48.860;9.198;2023-07-24T10:20:07;22.80;99.90
8595;DHT22;4335;48.860;9.198;2023-07-24T10:22:36;22.70;99.90
8595;DHT22;4335;48.860;9.198;2023-07-24T10:25:16;22.60;99.90
8595;DHT22;4335;48.860;9.198;2023-07-24T10:27:43;22.50;99.90
8595;DHT22;4335;48.860;9.198;2023-07-24T10:30:16;22.50;99.90
8595;DHT22;4335;48.860;9.198;2023-07-24T10:32:46;22.40;99.90
8595;DHT22;4335;48.860;9.198;2023-07-24T10:35:18;22.40;99.90
8595;DHT22;4335;48.860;9.198;2023-07-24T10:37:46;22.30;99.90
8595;DHT22;4335;48.860;9.198;2023-07-24T10:40:19;22.30;99.90
8595;DHT22;4335;48.860;9.198;2023-07-24T10:42:58;22.20;99.90
8595;DHT22;4335;48.860;9.198;2023-07-24T10:45:27;22.20;99.90
8595;DHT22;4335;48.860;9.198;2023-07-24T10:48:08;22.20;99.90
8595;DHT22;4335;48.860;9.198;2023-07-24T10:50:41;22.10;99.90
8595;DHT22;4335;48.860;9.198;2023-07-24T10:53:09;22.00;99.90
8595;DHT22;4335;48.860;9.198;2023-07-24T10:55:39;21.90;99.90
8595;DHT22;4335;48.860;9.198;2023-07-24T10:58:13;21.80;99.90
8595;DHT22;4335;48.860;9.198;2023-07-24T11:00:41;21.70;99.90
8595;DHT22;4335;48.860;9.198;2023-07-24T11:03:09;21.60;99.90
8595;DHT22;4335;48.860;9.198;2023-07-24T11:05:39;21.50;99.90
8595;DHT22;4335;48.860;9.198;2023-07-24T11:08:11;21.40;99.90
8595;DHT22;4335;48.860;9.198;2023-07-24T11:10:44;21.30;99.90
8595;DHT22;4335;48.860;9.198;2023-07-24T11:13:14;21.20;99.90
8595;DHT22;4335;48.860;9.198;2023-07-24T11:15:40;21.10;99.90
8595;DHT22;4335;48.860;9.198;2023-07-24T11:18:07;21.00;99.90
8595;DHT22;4335;48.860;9.198;2023-07-24T11:20:37;20.90;99.90
8595;DHT22;4335;48.860;9.198;2023-07-24T11:23:04;20.80;99.90
8595;DHT22;4335;48.860;9.198;2023-07-24T11:25:30;20.80;99.90
8595;DHT22;4335;48.860;9.198;2023-07-24T11:27:58;20.80;99.90
8595;DHT22;4335;48.860;9.198;2023-07-24T11:30:28;20.80;99.90
8595;DHT22;4335;48.860;9.198;2023-07-24T11:32:55;20.80;99.90
8595;DHT22;4335;48.860;9.198;2023-07-24T11:35:23;20.80;99.90
8595;DHT22;4335;48.860;9.198;2023-07-24T11:37:54;20.90;99.90
8595;DHT22;4335;48.860;9.198;2023-07-24T11:40:20;20.90;99.90
8595;DHT22;4335;48.860;9.198;2023-07-24T11:42:50;21.00;99.90
8595;DHT22;4335;48.860;9.198;2023-07-24T11:45:17;21.10;99.90
8595;DHT22;4335;48.860;9.198;2023-07-24T11:47:46;21.30;99.90
8595;DHT22;4335;48.860;9.198;2023-07-24T11:50:13;21.70;99.90
8595;DHT22;4335;48.860;9.198;2023-07-24T11:52:42;22.00;99.90
8595;DHT22;4335;48.860;9.198;2023-07-24T11:55:10;22.30;99.90
8595;DHT22;4335;48.860;9.198;2023-07-24T11:57:40;22.50;99.90
8595;DHT22;4335;48.860;9.198;2023-07-24T12:00:18;22.50;99.90
8595;DHT22;4335;48.860;9.198;2023-07-24T12:02:45;22.50;99.90
8595;DHT22;4335;48.860;9.198;2023-07-24T12:05:12;22.50;99.90
8595;DHT22;4335;48.860;9.198;2023-07-24T12:07:43;22.30;99.90
8595;DHT22;4335;48.860;9.198;2023-07-24T12:10:25;22.20;99.90
8595;DHT22;4335;48.860;9.198;2023-07-24T12:12:53;22.00;99.90
8595;DHT22;4335;48.860;9.198;2023-07-24T12:15:23;21.80;99.90
8595;DHT22;4335;48.860;9.198;2023-07-24T12:17:50;21.70;99.90
8595;DHT22;4335;48.860;9.198;2023-07-24T12:20:19;21.50;99.90
8595;DHT22;4335;48.860;9.198;2023-07-24T12:22:49;21.40;99.90
8595;DHT22;4335;48.860;9.198;2023-07-24T12:25:16;21.30;99.90
8595;DHT22;4335;48.860;9.198;2023-07-24T12:27:45;21.20;99.90
8595;DHT22;4335;48.860;9.198;2023-07-24T12:30:13;21.20;99.90
8595;DHT22;4335;48.860;9.198;2023-07-24T12:32:39;21.20;99.90
8595;DHT22;4335;48.860;9.198;2023-07-24T12:35:08;21.20;99.90
8595;DHT22;4335;48.860;9.198;2023-07-24T12:37:35;21.20;99.90
8595;DHT22;4335;48.860;9.198;2023-07-24T12:40:02;21.10;99.90
8595;DHT22;4335;48.860;9.198;2023-07-24T12:42:29;21.10;99.90
8595;DHT22;4335;48.860;9.198;2023-07-24T12:45:05;21.10;99.90
8595;DHT22;4335;48.860;9.198;2023-07-24T12:47:38;21.20;99.90
8595;DHT22;4335;48.860;9.198;2023-07-24T12:50:09;21.20;99.90
8595;DHT22;4335;48.860;9.198;2023-07-24T12:52:39;21.20;99.90
8595;DHT22;4335;48.860;9.198;2023-07-24T12:55:07;21.20;99.90
8595;DHT22;4335;48.860;9.198;2023-07-24T12:57:33;21.30;99.90
8595;DHT22;4335;48.860;9.198;2023-07-24T13:00:04;21.20;99.90
8595;DHT22;4335;48.860;9.198;2023-07-24T13:02:31;21.30;99.90
8595;DHT22;4335;48.860;9.198;2023-07-24T13:04:58;21.40;99.90
8595;DHT22;4335;48.860;9.198;2023-07-24T13:07:25;21.50;99.90
8595;DHT22;4335;48.860;9.198;2023-07-24T13:09:52;21.60;99.90
8595;DHT22;4335;48.860;9.198;2023-07-24T13:12:21;21.70;99.90
8595;DHT22;4335;48.860;9.198;2023-07-24T13:14:51;21.80;99.90
8595;DHT22;4335;48.860;9.198;2023-07-24T13:17:18;21.90;99.90
8595;DHT22;4335;48.860;9.198;2023-07-24T13:19:44;21.90;99.90
8595;DHT22;4335;48.860;9.198;2023-07-24T13:22:14;22.00;99.90
8595;DHT22;4335;48.860;9.198;2023-07-24T13:24:44;21.90;99.90
8595;DHT22;4335;48.860;9.198;2023-07-24T13:27:11;22.00;99.90
8595;DHT22;4335;48.860;9.198;2023-07-24T13:29:38;22.00;99.90
8595;DHT22;4335;48.860;9.198;2023-07-24T13:32:13;22.00;99.90
8595;DHT22;4335;48.860;9.198;2023-07-24T13:34:41;22.10;99.90
8595;DHT22;4335;48.860;9.198;2023-07-24T13:37:11;22.20;99.90
8595;DHT22;4335;48.860;9.198;2023-07-24T13:39:42;22.20;99.90
8595;DHT22;4335;48.860;9.198;2023-07-24T13:42:11;22.30;99.90
8595;DHT22;4335;48.860;9.198;2023-07-24T13:44:41;22.40;99.90
8595;DHT22;4335;48.860;9.198;2023-07-24T13:47:18;22.40;99.90
8595;DHT22;4335;48.860;9.198;2023-07-24T13:49:48;22.40;99.90
8595;DHT22;4335;48.860;9.198;2023-07-24T13:52:18;22.50;99.90
8595;DHT22;4335;48.860;9.198;2023-07-24T13:54:45;22.60;99.90
8595;DHT22;4335;48.860;9.198;2023-07-24T13:57:15;22.70;99.90
8595;DHT22;4335;48.860;9.198;2023-07-24T13:59:42;22.90;99.90
8595;DHT22;4335;48.860;9.198;2023-07-24T14:02:12;23.10;99.90
8595;DHT22;4335;48.860;9.198;2023-07-24T14:04:44;23.30;99.90
8595;DHT22;4335;48.860;9.198;2023-07-24T14:07:11;23.60;99.90
8595;DHT22;4335;48.860;9.198;2023-07-24T14:09:39;23.70;99.90
8595;DHT22;4335;48.860;9.198;2023-07-24T14:12:14;23.90;99.90
8595;DHT22;4335;48.860;9.198;2023-07-24T14:14:43;24.00;99.90
8595;DHT22;4335;48.860;9.198;2023-07-24T14:17:13;24.00;99.90
8595;DHT22;4335;48.860;9.198;2023-07-24T14:19:40;24.10;99.90
8595;DHT22;4335;48.860;9.198;2023-07-24T14:22:07;24.20;99.90
8595;DHT22;4335;48.860;9.198;2023-07-24T14:24:52;24.30;99.90
8595;DHT22;4335;48.860;9.198;2023-07-24T14:27:19;24.20;99.90
8595;DHT22;4335;48.860;9.198;2023-07-24T14:29:48;24.20;99.90
8595;DHT22;4335;48.860;9.198;2023-07-24T14:32:18;24.30;99.90
8595;DHT22;4335;48.860;9.198;2023-07-24T14:34:52;24.30;99.90
8595;DHT22;4335;48.860;9.198;2023-07-24T14:37:19;24.40;99.90
8595;DHT22;4335;48.860;9.198;2023-07-24T14:39:51;24.40;99.90
8595;DHT22;4335;48.860;9.198;2023-07-24T14:42:25;24.50;99.90
8595;DHT22;4335;48.860;9.198;2023-07-24T14:44:55;24.50;99.90
8595;DHT22;4335;48.860;9.198;2023-07-24T14:47:27;24.40;99.90
8595;DHT22;4335;48.860;9.198;2023-07-24T14:49:57;24.40;99.90
8595;DHT22;4335;48.860;9.198;2023-07-24T14:52:39;24.50;99.90
8595;DHT22;4335;48.860;9.198;2023-07-24T14:55:07;24.40;99.90
8595;DHT22;4335;48.860;9.198;2023-07-24T14:57:37;24.50;99.90
8595;DHT22;4335;48.860;9.198;2023-07-24T15:00:06;24.50;99.90
8595;DHT22;4335;48.860;9.198;2023-07-24T15:02:34;24.50;99.90
8595;DHT22;4335;48.860;9.198;2023-07-24T15:05:00;24.60;99.90
8595;DHT22;4335;48.860;9.198;2023-07-24T15:07:33;24.60;99.90
8595;DHT22;4335;48.860;9.198;2023-07-24T15:10:00;24.70;99.90
8595;DHT22;4335;48.860;9.198;2023-07-24T15:12:27;24.80;99.90
8595;DHT22;4335;48.860;9.198;2023-07-24T15:14:54;25.00;99.90
8595;DHT22;4335;48.860;9.198;2023-07-24T15:17:27;25.10;99.90
8595;DHT22;4335;48.860;9.198;2023-07-24T15:19:56;25.30;99.90
8595;DHT22;4335;48.860;9.198;2023-07-24T15:22:23;25.40;99.90
8595;DHT22;4335;48.860;9.198;2023-07-24T15:24:50;25.40;99.90
8595;DHT22;4335;48.860;9.198;2023-07-24T15:27:16;25.30;99.90
8595;DHT22;4335;48.860;9.198;2023-07-24T15:29:49;25.20;99.90
8595;DHT22;4335;48.860;9.198;2023-07-24T15:32:19;25.00;99.90
8595;DHT22;4335;48.860;9.198;2023-07-24T15:34:50;24.80;99.90
8595;DHT22;4335;48.860;9.198;2023-07-24T15:37:19;24.70;99.90
8595;DHT22;4335;48.860;9.198;2023-07-24T15:39:49;24.60;99.90
8595;DHT22;4335;48.860;9.198;2023-07-24T15:42:16;24.40;99.90
8595;DHT22;4335;48.860;9.198;2023-07-24T15:44:42;24.30;99.90
8595;DHT22;4335;48.860;9.198;2023-07-24T15:47:15;24.20;99.90
8595;DHT22;4335;48.860;9.198;2023-07-24T15:49:42;24.10;99.90
8595;DHT22;4335;48.860;9.198;2023-07-24T15:52:18;24.00;99.90
8595;DHT22;4335;48.860;9.198;2023-07-24T15:54:48;24.00;99.90
8595;DHT22;4335;48.860;9.198;2023-07-24T15:57:15;23.90;99.90
8595;DHT22;4335;48.860;9.198;2023-07-24T15:59:41;23.90;99.90
8595;DHT22;4335;48.860;9.198;2023-07-24T16:02:11;24.00;99.90
8595;DHT22;4335;48.860;9.198;2023-07-24T16:04:41;24.00;99.90
8595;DHT22;4335;48.860;9.198;2023-07-24T16:07:11;24.00;99.90
8595;DHT22;4335;48.860;9.198;2023-07-24T16:09:37;24.00;99.90
8595;DHT22;4335;48.860;9.198;2023-07-24T16:12:07;24.00;99.90
8595;DHT22;4335;48.860;9.198;2023-07-24T16:14:40;23.90;99.90
8595;DHT22;4335;48.860;9.198;2023-07-24T16:17:06;23.90;99.90